sensor_id;sensor_type;location;lat;lon;timestamp;P1;durP1;ratioP1;P2;durP2;ratioP2
54235;SDS011;40151;43.606;1.472;2023-04-01T00:00:56;6.88;;;2.25;;
54235;SDS011;40151;43.606;1.472;2023-04-01T00:03:24;10.43;;;3.03;;
54235;SDS011;40151;43.606;1.472;2023-04-01T00:05:51;10.98;;;3.00;;
54235;SDS011;40151;43.606;1.472;2023-04-01T00:08:17;9.55;;;2.70;;
54235;SDS011;40151;43.606;1.472;2023-04-01T00:10:43;7.35;;;2.30;;
54235;SDS011;40151;43.606;1.472;2023-04-01T00:13:08;8.63;;;2.67;;
54235;SDS011;40151;43.606;1.472;2023-04-01T00:15:34;9.25;;;2.47;;
54235;SDS011;40151;43.606;1.472;2023-04-01T00:18:00;9.25;;;2.88;;
54235;SDS011;40151;43.606;1.472;2023-04-01T00:20:26;8.82;;;2.83;;
54235;SDS011;40151;43.606;1.472;2023-04-01T00:22:52;10.52;;;3.22;;
54235;SDS011;40151;43.606;1.472;2023-04-01T00:25:17;7.68;;;2.58;;
54235;SDS011;40151;43.606;1.472;2023-04-01T00:27:43;11.07;;;2.67;;
54235;SDS011;40151;43.606;1.472;2023-04-01T00:30:09;10.13;;;2.22;;
54235;SDS011;40151;43.606;1.472;2023-04-01T00:32:35;10.25;;;2.90;;
54235;SDS011;40151;43.606;1.472;2023-04-01T00:35:01;10.90;;;3.25;;
54235;SDS011;40151;43.606;1.472;2023-04-01T00:37:27;8.27;;;2.80;;
54235;SDS011;40151;43.606;1.472;2023-04-01T00:39:53;8.30;;;3.00;;
54235;SDS011;40151;43.606;1.472;2023-04-01T00:42:19;7.93;;;2.70;;
54235;SDS011;40151;43.606;1.472;2023-04-01T00:44:45;9.75;;;2.63;;
54235;SDS011;40151;43.606;1.472;2023-04-01T00:47:22;6.93;;;2.35;;
54235;SDS011;40151;43.606;1.472;2023-04-01T00:49:51;7.97;;;2.75;;
54235;SDS011;40151;43.606;1.472;2023-04-01T00:52:20;9.77;;;2.28;;
54235;SDS011;40151;43.606;1.472;2023-04-01T00:54:48;7.90;;;1.98;;
54235;SDS011;40151;43.606;1.472;2023-04-01T00:57:25;8.40;;;2.72;;
54235;SDS011;40151;43.606;1.472;2023-04-01T00:59:56;7.07;;;2.40;;
54235;SDS011;40151;43.606;1.472;2023-04-01T01:02:23;7.78;;;2.55;;
54235;SDS011;40151;43.606;1.472;2023-04-01T01:04:48;7.80;;;2.83;;
54235;SDS011;40151;43.606;1.472;2023-04-01T01:09:47;9.15;;;2.65;;
54235;SDS011;40151;43.606;1.472;2023-04-01T01:12:20;7.57;;;2.45;;
54235;SDS011;40151;43.606;1.472;2023-04-01T01:23:21;7.00;;;2.40;;
54235;SDS011;40151;43.606;1.472;2023-04-01T01:25:50;8.90;;;2.38;;
54235;SDS011;40151;43.606;1.472;2023-04-01T01:34:24;9.02;;;2.50;;
54235;SDS011;40151;43.606;1.472;2023-04-01T01:37:20;9.82;;;2.75;;
54235;SDS011;40151;43.606;1.472;2023-04-01T01:39:54;8.55;;;2.45;;
54235;SDS011;40151;43.606;1.472;2023-04-01T01:42:23;8.35;;;2.50;;
54235;SDS011;40151;43.606;1.472;2023-04-01T01:44:51;8.65;;;2.88;;
54235;SDS011;40151;43.606;1.472;2023-04-01T01:47:18;8.15;;;2.40;;
54235;SDS011;40151;43.606;1.472;2023-04-01T01:49:47;8.77;;;2.70;;
54235;SDS011;40151;43.606;1.472;2023-04-01T01:52:13;7.55;;;2.33;;
54235;SDS011;40151;43.606;1.472;2023-04-01T01:54:57;8.07;;;2.47;;
54235;SDS011;40151;43.606;1.472;2023-04-01T01:57:25;7.20;;;2.38;;
54235;SDS011;40151;43.606;1.472;2023-04-01T01:59:55;6.20;;;1.92;;
54235;SDS011;40151;43.606;1.472;2023-04-01T02:02:26;9.00;;;2.55;;
54235;SDS011;40151;43.606;1.472;2023-04-01T02:04:56;8.02;;;2.50;;
54235;SDS011;40151;43.606;1.472;2023-04-01T02:07:27;6.82;;;2.40;;
54235;SDS011;40151;43.606;1.472;2023-04-01T02:09:56;7.35;;;2.20;;
54235;SDS011;40151;43.606;1.472;2023-04-01T02:12:22;8.43;;;2.65;;
54235;SDS011;40151;43.606;1.472;2023-04-01T02:14:51;8.32;;;2.50;;
54235;SDS011;40151;43.606;1.472;2023-04-01T02:17:25;7.72;;;2.45;;
54235;SDS011;40151;43.606;1.472;2023-04-01T02:19:56;8.63;;;2.38;;
54235;SDS011;40151;43.606;1.472;2023-04-01T02:22:25;10.27;;;2.80;;
54235;SDS011;40151;43.606;1.472;2023-04-01T02:24:54;7.55;;;2.53;;
54235;SDS011;40151;43.606;1.472;2023-04-01T02:27:24;8.68;;;2.28;;
54235;SDS011;40151;43.606;1.472;2023-04-01T02:29:51;7.50;;;2.13;;
54235;SDS011;40151;43.606;1.472;2023-04-01T02:32:18;8.38;;;2.55;;
54235;SDS011;40151;43.606;1.472;2023-04-01T02:34:45;7.82;;;2.38;;
54235;SDS011;40151;43.606;1.472;2023-04-01T02:37:12;8.45;;;2.47;;
54235;SDS011;40151;43.606;1.472;2023-04-01T02:39:38;8.13;;;2.85;;
54235;SDS011;40151;43.606;1.472;2023-04-01T02:42:04;7.45;;;2.67;;
54235;SDS011;40151;43.606;1.472;2023-04-01T02:44:30;7.88;;;2.80;;
54235;SDS011;40151;43.606;1.472;2023-04-01T02:46:56;8.55;;;2.72;;
54235;SDS011;40151;43.606;1.472;2023-04-01T02:49:21;8.77;;;2.50;;
54235;SDS011;40151;43.606;1.472;2023-04-01T02:51:47;8.38;;;2.83;;
54235;SDS011;40151;43.606;1.472;2023-04-01T02:54:12;9.30;;;2.78;;
54235;SDS011;40151;43.606;1.472;2023-04-01T02:56:38;8.68;;;2.83;;
54235;SDS011;40151;43.606;1.472;2023-04-01T02:59:03;7.40;;;2.50;;
54235;SDS011;40151;43.606;1.472;2023-04-01T03:01:29;7.40;;;2.33;;
54235;SDS011;40151;43.606;1.472;2023-04-01T03:03:54;7.70;;;2.88;;
54235;SDS011;40151;43.606;1.472;2023-04-01T03:06:20;7.50;;;2.47;;
54235;SDS011;40151;43.606;1.472;2023-04-01T03:08:46;8.93;;;2.92;;
54235;SDS011;40151;43.606;1.472;2023-04-01T03:11:11;9.23;;;2.60;;
54235;SDS011;40151;43.606;1.472;2023-04-01T03:13:37;6.72;;;2.47;;
54235;SDS011;40151;43.606;1.472;2023-04-01T03:16:03;8.27;;;2.28;;
54235;SDS011;40151;43.606;1.472;2023-04-01T03:18:29;9.27;;;2.60;;
54235;SDS011;40151;43.606;1.472;2023-04-01T03:20:54;8.77;;;2.40;;
54235;SDS011;40151;43.606;1.472;2023-04-01T03:23:20;9.00;;;2.35;;
54235;SDS011;40151;43.606;1.472;2023-04-01T03:25:46;8.02;;;2.20;;
54235;SDS011;40151;43.606;1.472;2023-04-01T03:28:12;7.35;;;2.08;;
54235;SDS011;40151;43.606;1.472;2023-04-01T03:30:38;8.07;;;2.70;;
54235;SDS011;40151;43.606;1.472;2023-04-01T03:33:03;9.18;;;2.55;;
54235;SDS011;40151;43.606;1.472;2023-04-01T03:35:29;10.68;;;3.00;;
54235;SDS011;40151;43.606;1.472;2023-04-01T03:37:55;9.45;;;2.47;;
54235;SDS011;40151;43.606;1.472;2023-04-01T03:40:21;10.48;;;2.45;;
54235;SDS011;40151;43.606;1.472;2023-04-01T03:42:47;8.10;;;2.50;;
54235;SDS011;40151;43.606;1.472;2023-04-01T03:45:13;9.13;;;2.47;;
54235;SDS011;40151;43.606;1.472;2023-04-01T03:47:38;9.30;;;2.88;;
54235;SDS011;40151;43.606;1.472;2023-04-01T03:50:05;7.13;;;2.45;;
54235;SDS011;40151;43.606;1.472;2023-04-01T03:52:31;9.10;;;2.53;;
54235;SDS011;40151;43.606;1.472;2023-04-01T03:54:57;8.50;;;2.60;;
54235;SDS011;40151;43.606;1.472;2023-04-01T03:57:22;9.38;;;2.92;;
54235;SDS011;40151;43.606;1.472;2023-04-01T03:59:48;8.93;;;2.65;;
54235;SDS011;40151;43.606;1.472;2023-04-01T04:02:13;8.82;;;2.95;;
54235;SDS011;40151;43.606;1.472;2023-04-01T04:04:38;10.38;;;2.10;;
54235;SDS011;40151;43.606;1.472;2023-04-01T04:07:04;10.32;;;2.63;;
54235;SDS011;40151;43.606;1.472;2023-04-01T04:09:30;8.32;;;2.58;;
54235;SDS011;40151;43.606;1.472;2023-04-01T04:11:56;11.02;;;3.15;;
54235;SDS011;40151;43.606;1.472;2023-04-01T04:14:22;11.20;;;2.65;;
54235;SDS011;40151;43.606;1.472;2023-04-01T04:16:48;7.88;;;2.67;;
54235;SDS011;40151;43.606;1.472;2023-04-01T04:19:13;12.05;;;2.60;;
54235;SDS011;40151;43.606;1.472;2023-04-01T04:21:40;9.05;;;2.83;;
54235;SDS011;40151;43.606;1.472;2023-04-01T04:24:06;8.38;;;2.30;;
54235;SDS011;40151;43.606;1.472;2023-04-01T04:26:32;11.20;;;2.47;;
54235;SDS011;40151;43.606;1.472;2023-04-01T04:28:57;8.25;;;2.65;;
54235;SDS011;40151;43.606;1.472;2023-04-01T04:31:23;7.40;;;2.25;;
54235;SDS011;40151;43.606;1.472;2023-04-01T04:33:50;7.80;;;2.55;;
54235;SDS011;40151;43.606;1.472;2023-04-01T04:36:16;9.75;;;2.70;;
54235;SDS011;40151;43.606;1.472;2023-04-01T04:38:43;9.13;;;2.60;;
54235;SDS011;40151;43.606;1.472;2023-04-01T04:41:09;9.77;;;2.50;;
54235;SDS011;40151;43.606;1.472;2023-04-01T04:43:36;8.13;;;2.35;;
54235;SDS011;40151;43.606;1.472;2023-04-01T04:46:06;7.65;;;2.58;;
54235;SDS011;40151;43.606;1.472;2023-04-01T04:48:35;7.03;;;2.50;;
54235;SDS011;40151;43.606;1.472;2023-04-01T04:51:00;9.25;;;2.53;;
54235;SDS011;40151;43.606;1.472;2023-04-01T04:53:26;8.85;;;2.50;;
54235;SDS011;40151;43.606;1.472;2023-04-01T04:55:52;7.63;;;2.83;;
54235;SDS011;40151;43.606;1.472;2023-04-01T04:58:18;11.15;;;3.03;;
54235;SDS011;40151;43.606;1.472;2023-04-01T05:00:44;8.77;;;2.38;;
54235;SDS011;40151;43.606;1.472;2023-04-01T05:03:10;9.05;;;2.60;;
54235;SDS011;40151;43.606;1.472;2023-04-01T05:05:36;9.93;;;2.83;;
54235;SDS011;40151;43.606;1.472;2023-04-01T05:08:02;6.15;;;1.98;;
54235;SDS011;40151;43.606;1.472;2023-04-01T05:10:28;8.35;;;2.70;;
54235;SDS011;40151;43.606;1.472;2023-04-01T05:12:54;7.82;;;2.60;;
54235;SDS011;40151;43.606;1.472;2023-04-01T05:15:19;8.80;;;2.33;;
54235;SDS011;40151;43.606;1.472;2023-04-01T05:17:45;7.05;;;2.30;;
54235;SDS011;40151;43.606;1.472;2023-04-01T05:20:11;9.05;;;2.72;;
54235;SDS011;40151;43.606;1.472;2023-04-01T05:22:38;8.15;;;2.05;;
54235;SDS011;40151;43.606;1.472;2023-04-01T05:25:03;8.98;;;2.95;;
54235;SDS011;40151;43.606;1.472;2023-04-01T05:27:29;8.98;;;2.75;;
54235;SDS011;40151;43.606;1.472;2023-04-01T05:29:54;8.27;;;2.63;;
54235;SDS011;40151;43.606;1.472;2023-04-01T05:32:20;7.93;;;2.35;;
54235;SDS011;40151;43.606;1.472;2023-04-01T05:34:46;7.78;;;2.92;;
54235;SDS011;40151;43.606;1.472;2023-04-01T05:37:11;8.60;;;2.17;;
54235;SDS011;40151;43.606;1.472;2023-04-01T05:39:37;8.00;;;2.53;;
54235;SDS011;40151;43.606;1.472;2023-04-01T05:42:05;9.68;;;2.72;;
54235;SDS011;40151;43.606;1.472;2023-04-01T05:44:31;8.32;;;2.63;;
54235;SDS011;40151;43.606;1.472;2023-04-01T05:46:56;6.45;;;2.20;;
54235;SDS011;40151;43.606;1.472;2023-04-01T05:49:22;9.57;;;3.03;;
54235;SDS011;40151;43.606;1.472;2023-04-01T05:51:47;9.52;;;2.83;;
54235;SDS011;40151;43.606;1.472;2023-04-01T05:54:12;8.93;;;2.58;;
54235;SDS011;40151;43.606;1.472;2023-04-01T05:56:38;8.88;;;2.63;;
54235;SDS011;40151;43.606;1.472;2023-04-01T05:59:03;8.30;;;2.38;;
54235;SDS011;40151;43.606;1.472;2023-04-01T06:01:29;10.23;;;3.70;;
54235;SDS011;40151;43.606;1.472;2023-04-01T06:03:54;9.00;;;1.90;;
54235;SDS011;40151;43.606;1.472;2023-04-01T06:06:23;9.02;;;3.00;;
54235;SDS011;40151;43.606;1.472;2023-04-01T06:08:50;7.00;;;2.80;;
54235;SDS011;40151;43.606;1.472;2023-04-01T06:35:28;8.45;;;2.88;;
54235;SDS011;40151;43.606;1.472;2023-04-01T06:38:09;8.13;;;2.72;;
54235;SDS011;40151;43.606;1.472;2023-04-01T06:47:01;9.68;;;2.03;;
54235;SDS011;40151;43.606;1.472;2023-04-01T06:55:35;8.93;;;2.53;;
54235;SDS011;40151;43.606;1.472;2023-04-01T06:58:06;10.70;;;2.40;;
54235;SDS011;40151;43.606;1.472;2023-04-01T07:00:43;6.93;;;2.17;;
54235;SDS011;40151;43.606;1.472;2023-04-01T07:05:48;8.70;;;2.03;;
54235;SDS011;40151;43.606;1.472;2023-04-01T07:08:26;8.95;;;2.85;;
54235;SDS011;40151;43.606;1.472;2023-04-01T07:11:02;6.35;;;2.03;;
54235;SDS011;40151;43.606;1.472;2023-04-01T07:13:34;7.22;;;2.08;;
54235;SDS011;40151;43.606;1.472;2023-04-01T07:16:40;7.82;;;2.20;;
54235;SDS011;40151;43.606;1.472;2023-04-01T07:22:09;10.95;;;2.50;;
54235;SDS011;40151;43.606;1.472;2023-04-01T07:24:39;8.65;;;2.88;;
54235;SDS011;40151;43.606;1.472;2023-04-01T07:27:09;8.27;;;2.45;;
54235;SDS011;40151;43.606;1.472;2023-04-01T07:29:36;7.72;;;2.30;;
54235;SDS011;40151;43.606;1.472;2023-04-01T07:37:30;10.57;;;2.70;;
54235;SDS011;40151;43.606;1.472;2023-04-01T07:43:13;8.75;;;2.10;;
54235;SDS011;40151;43.606;1.472;2023-04-01T08:00:27;6.05;;;1.85;;
54235;SDS011;40151;43.606;1.472;2023-04-01T08:03:17;7.75;;;2.20;;
54235;SDS011;40151;43.606;1.472;2023-04-01T08:06:05;8.55;;;2.05;;
54235;SDS011;40151;43.606;1.472;2023-04-01T08:08:55;7.22;;;2.50;;
54235;SDS011;40151;43.606;1.472;2023-04-01T08:14:34;9.03;;;3.17;;
54235;SDS011;40151;43.606;1.472;2023-04-01T08:22:40;8.30;;;2.25;;
54235;SDS011;40151;43.606;1.472;2023-04-01T08:25:10;6.90;;;2.42;;
54235;SDS011;40151;43.606;1.472;2023-04-01T08:30:50;9.07;;;2.10;;
54235;SDS011;40151;43.606;1.472;2023-04-01T08:33:24;7.22;;;2.00;;
54235;SDS011;40151;43.606;1.472;2023-04-01T08:35:56;9.05;;;2.35;;
54235;SDS011;40151;43.606;1.472;2023-04-01T08:38:34;8.65;;;2.60;;
54235;SDS011;40151;43.606;1.472;2023-04-01T08:44:05;6.30;;;1.83;;
54235;SDS011;40151;43.606;1.472;2023-04-01T08:52:35;7.28;;;2.20;;
54235;SDS011;40151;43.606;1.472;2023-04-01T09:14:51;7.50;;;1.90;;
54235;SDS011;40151;43.606;1.472;2023-04-01T09:37:16;8.18;;;2.03;;
54235;SDS011;40151;43.606;1.472;2023-04-01T09:40:09;6.53;;;1.92;;
54235;SDS011;40151;43.606;1.472;2023-04-01T09:59:37;7.30;;;1.90;;
54235;SDS011;40151;43.606;1.472;2023-04-01T10:13:21;5.13;;;1.90;;
54235;SDS011;40151;43.606;1.472;2023-04-01T10:47:12;6.40;;;1.67;;
54235;SDS011;40151;43.606;1.472;2023-04-01T10:53:19;5.50;;;1.55;;
54235;SDS011;40151;43.606;1.472;2023-04-01T11:01:19;6.68;;;2.10;;
54235;SDS011;40151;43.606;1.472;2023-04-01T11:24:30;6.18;;;1.90;;
54235;SDS011;40151;43.606;1.472;2023-04-01T11:43:11;5.10;;;1.95;;
54235;SDS011;40151;43.606;1.472;2023-04-01T11:45:53;6.95;;;2.00;;
54235;SDS011;40151;43.606;1.472;2023-04-01T11:48:43;6.80;;;2.05;;
54235;SDS011;40151;43.606;1.472;2023-04-01T12:10:36;6.15;;;2.03;;
54235;SDS011;40151;43.606;1.472;2023-04-01T12:19:56;4.53;;;1.35;;
54235;SDS011;40151;43.606;1.472;2023-04-01T12:24:49;5.22;;;1.98;;
54235;SDS011;40151;43.606;1.472;2023-04-01T12:27:39;5.15;;;1.83;;
54235;SDS011;40151;43.606;1.472;2023-04-01T12:40:49;7.40;;;2.20;;
54235;SDS011;40151;43.606;1.472;2023-04-01T13:05:18;5.32;;;1.77;;
54235;SDS011;40151;43.606;1.472;2023-04-01T13:08:35;4.53;;;1.52;;
54235;SDS011;40151;43.606;1.472;2023-04-01T13:19:35;6.50;;;1.80;;
54235;SDS011;40151;43.606;1.472;2023-04-01T13:22:08;5.30;;;1.40;;
54235;SDS011;40151;43.606;1.472;2023-04-01T13:27:43;4.60;;;1.27;;
54235;SDS011;40151;43.606;1.472;2023-04-01T13:30:24;7.53;;;1.60;;
54235;SDS011;40151;43.606;1.472;2023-04-01T13:33:12;5.80;;;1.48;;
54235;SDS011;40151;43.606;1.472;2023-04-01T13:44:23;9.70;;;2.03;;
54235;SDS011;40151;43.606;1.472;2023-04-01T13:52:44;9.27;;;2.38;;
54235;SDS011;40151;43.606;1.472;2023-04-01T14:00:41;7.32;;;2.33;;
54235;SDS011;40151;43.606;1.472;2023-04-01T14:32:31;9.80;;;1.77;;
54235;SDS011;40151;43.606;1.472;2023-04-01T14:40:40;9.10;;;1.52;;
54235;SDS011;40151;43.606;1.472;2023-04-01T14:43:20;8.82;;;1.40;;
54235;SDS011;40151;43.606;1.472;2023-04-01T14:46:08;5.38;;;1.77;;
54235;SDS011;40151;43.606;1.472;2023-04-01T14:48:35;4.00;;;1.20;;
54235;SDS011;40151;43.606;1.472;2023-04-01T14:51:10;4.03;;;1.50;;
54235;SDS011;40151;43.606;1.472;2023-04-01T14:53:43;5.50;;;1.23;;
54235;SDS011;40151;43.606;1.472;2023-04-01T14:56:42;5.05;;;1.10;;
54235;SDS011;40151;43.606;1.472;2023-04-01T14:59:30;7.75;;;1.23;;
54235;SDS011;40151;43.606;1.472;2023-04-01T15:07:06;3.45;;;1.15;;
54235;SDS011;40151;43.606;1.472;2023-04-01T15:18:11;5.28;;;1.30;;
54235;SDS011;40151;43.606;1.472;2023-04-01T15:34:16;4.20;;;1.00;;
54235;SDS011;40151;43.606;1.472;2023-04-01T15:49:56;3.13;;;0.80;;
54235;SDS011;40151;43.606;1.472;2023-04-01T15:52:50;4.97;;;1.10;;
54235;SDS011;40151;43.606;1.472;2023-04-01T15:55:37;4.45;;;1.33;;
54235;SDS011;40151;43.606;1.472;2023-04-01T16:15:54;5.20;;;1.15;;
54235;SDS011;40151;43.606;1.472;2023-04-01T16:21:51;4.15;;;1.05;;
54235;SDS011;40151;43.606;1.472;2023-04-01T16:32:15;4.45;;;1.00;;
54235;SDS011;40151;43.606;1.472;2023-04-01T16:34:58;3.03;;;0.80;;
54235;SDS011;40151;43.606;1.472;2023-04-01T16:37:37;3.63;;;1.15;;
54235;SDS011;40151;43.606;1.472;2023-04-01T16:40:58;5.78;;;1.38;;
54235;SDS011;40151;43.606;1.472;2023-04-01T16:46:12;3.33;;;0.90;;
54235;SDS011;40151;43.606;1.472;2023-04-01T16:49:00;3.20;;;0.63;;
54235;SDS011;40151;43.606;1.472;2023-04-01T16:54:30;2.00;;;1.00;;
54235;SDS011;40151;43.606;1.472;2023-04-01T16:57:19;2.58;;;0.95;;
54235;SDS011;40151;43.606;1.472;2023-04-01T17:00:15;3.90;;;0.88;;
54235;SDS011;40151;43.606;1.472;2023-04-01T17:10:47;3.08;;;1.25;;
54235;SDS011;40151;43.606;1.472;2023-04-01T17:13:29;2.38;;;0.80;;
54235;SDS011;40151;43.606;1.472;2023-04-01T17:32:44;5.75;;;1.23;;
54235;SDS011;40151;43.606;1.472;2023-04-01T17:35:37;3.78;;;0.90;;
54235;SDS011;40151;43.606;1.472;2023-04-01T17:38:21;2.70;;;0.75;;
54235;SDS011;40151;43.606;1.472;2023-04-01T17:43:44;2.83;;;1.02;;
54235;SDS011;40151;43.606;1.472;2023-04-01T18:02:41;4.18;;;1.48;;
54235;SDS011;40151;43.606;1.472;2023-04-01T18:05:26;6.80;;;1.45;;
54235;SDS011;40151;43.606;1.472;2023-04-01T18:14:03;5.25;;;1.35;;
54235;SDS011;40151;43.606;1.472;2023-04-01T18:16:45;5.03;;;1.58;;
54235;SDS011;40151;43.606;1.472;2023-04-01T18:27:36;9.93;;;2.80;;
54235;SDS011;40151;43.606;1.472;2023-04-01T18:38:13;8.00;;;2.25;;
54235;SDS011;40151;43.606;1.472;2023-04-01T18:40:43;6.15;;;2.30;;
54235;SDS011;40151;43.606;1.472;2023-04-01T18:46:05;8.32;;;2.13;;
54235;SDS011;40151;43.606;1.472;2023-04-01T18:51:38;6.53;;;2.08;;
54235;SDS011;40151;43.606;1.472;2023-04-01T18:57:12;9.15;;;2.15;;
54235;SDS011;40151;43.606;1.472;2023-04-01T19:00:02;7.63;;;1.83;;
54235;SDS011;40151;43.606;1.472;2023-04-01T19:02:36;6.00;;;1.88;;
54235;SDS011;40151;43.606;1.472;2023-04-01T19:07:42;7.32;;;2.00;;
54235;SDS011;40151;43.606;1.472;2023-04-01T19:10:13;7.82;;;2.67;;
54235;SDS011;40151;43.606;1.472;2023-04-01T19:21:01;7.20;;;2.00;;
54235;SDS011;40151;43.606;1.472;2023-04-01T19:37:54;7.40;;;2.60;;
54235;SDS011;40151;43.606;1.472;2023-04-01T19:43:23;6.65;;;1.90;;
54235;SDS011;40151;43.606;1.472;2023-04-01T19:51:26;4.82;;;1.67;;
54235;SDS011;40151;43.606;1.472;2023-04-01T19:54:12;7.65;;;2.40;;
54235;SDS011;40151;43.606;1.472;2023-04-01T19:56:53;7.75;;;2.00;;
54235;SDS011;40151;43.606;1.472;2023-04-01T20:10:45;6.50;;;2.47;;
54235;SDS011;40151;43.606;1.472;2023-04-01T20:16:06;8.63;;;2.30;;
54235;SDS011;40151;43.606;1.472;2023-04-01T20:26:39;8.98;;;3.08;;
54235;SDS011;40151;43.606;1.472;2023-04-01T20:35:02;8.07;;;3.22;;
54235;SDS011;40151;43.606;1.472;2023-04-01T20:37:57;8.00;;;2.70;;
54235;SDS011;40151;43.606;1.472;2023-04-01T20:40:49;7.30;;;2.92;;
54235;SDS011;40151;43.606;1.472;2023-04-01T20:43:24;9.55;;;2.83;;
54235;SDS011;40151;43.606;1.472;2023-04-01T20:51:37;9.75;;;2.38;;
54235;SDS011;40151;43.606;1.472;2023-04-01T21:07:55;7.25;;;2.88;;
54235;SDS011;40151;43.606;1.472;2023-04-01T21:16:15;10.27;;;3.05;;
54235;SDS011;40151;43.606;1.472;2023-04-01T21:29:51;7.78;;;2.67;;
54235;SDS011;40151;43.606;1.472;2023-04-01T21:46:15;8.13;;;2.53;;
54235;SDS011;40151;43.606;1.472;2023-04-01T22:05:49;8.98;;;2.47;;
54235;SDS011;40151;43.606;1.472;2023-04-01T22:11:15;8.77;;;2.25;;
54235;SDS011;40151;43.606;1.472;2023-04-01T22:22:04;6.75;;;1.88;;
54235;SDS011;40151;43.606;1.472;2023-04-01T22:32:23;7.38;;;2.10;;
54235;SDS011;40151;43.606;1.472;2023-04-01T22:40:27;8.38;;;2.17;;
54235;SDS011;40151;43.606;1.472;2023-04-01T22:43:08;8.85;;;2.25;;
54235;SDS011;40151;43.606;1.472;2023-04-01T22:48:20;8.55;;;2.22;;
54235;SDS011;40151;43.606;1.472;2023-04-01T22:56:32;7.80;;;2.25;;
54235;SDS011;40151;43.606;1.472;2023-04-01T23:01:40;7.53;;;2.03;;
54235;SDS011;40151;43.606;1.472;2023-04-01T23:04:09;5.70;;;1.63;;
54235;SDS011;40151;43.606;1.472;2023-04-01T23:06:42;5.90;;;2.08;;
54235;SDS011;40151;43.606;1.472;2023-04-01T23:09:28;10.18;;;2.08;;
54235;SDS011;40151;43.606;1.472;2023-04-01T23:12:01;5.57;;;2.03;;
54235;SDS011;40151;43.606;1.472;2023-04-01T23:31:25;5.20;;;1.98;;
54235;SDS011;40151;43.606;1.472;2023-04-01T23:33:53;7.85;;;1.95;;
54235;SDS011;40151;43.606;1.472;2023-04-01T23:36:20;9.05;;;2.05;;
54235;SDS011;40151;43.606;1.472;2023-04-01T23:38:47;6.00;;;1.80;;
54235;SDS011;40151;43.606;1.472;2023-04-01T23:41:22;5.45;;;1.60;;
54235;SDS011;40151;43.606;1.472;2023-04-01T23:44:10;4.30;;;1.65;;
54235;SDS011;40151;43.606;1.472;2023-04-01T23:46:38;4.80;;;1.95;;
54235;SDS011;40151;43.606;1.472;2023-04-01T23:49:06;5.35;;;1.50;;
54235;SDS011;40151;43.606;1.472;2023-04-01T23:51:39;5.65;;;1.83;;
54235;SDS011;40151;43.606;1.472;2023-04-01T23:54:19;5.20;;;1.40;;
54235;SDS011;40151;43.606;1.472;2023-04-01T23:56:54;4.45;;;1.38;;
54235;SDS011;40151;43.606;1.472;2023-04-01T23:59:32;6.63;;;1.60;;
